createdAt,value
2018-07-12T00:00:15.419Z,1005.15
2018-07-12T00:01:15.338Z,1005.11
2018-07-12T00:02:15.533Z,1005.20
2018-07-12T00:03:15.395Z,1005.20
2018-07-12T00:04:15.403Z,1005.22
2018-07-12T00:05:15.313Z,1005.23
2018-07-12T00:06:15.330Z,1005.17
2018-07-12T00:07:15.303Z,1005.24
2018-07-12T00:08:15.248Z,1005.23
2018-07-12T00:09:15.246Z,1005.21
2018-07-12T00:10:15.346Z,1005.23
2018-07-12T00:11:15.225Z,1005.15
2018-07-12T00:12:15.208Z,1005.15
2018-07-12T00:13:15.339Z,1005.12
2018-07-12T00:14:15.296Z,1005.11
2018-07-12T00:15:15.166Z,1005.18
2018-07-12T00:16:15.158Z,1005.08
2018-07-12T00:17:15.258Z,1005.08
2018-07-12T00:18:15.166Z,1005.17
2018-07-12T00:19:15.178Z,1005.18
2018-07-12T00:20:15.196Z,1005.23
2018-07-12T00:21:15.098Z,1005.22
2018-07-12T00:22:15.086Z,1005.21
2018-07-12T00:23:15.265Z,1005.14
2018-07-12T00:24:15.065Z,1005.19
2018-07-12T00:25:15.140Z,1005.16
2018-07-12T00:26:15.043Z,1005.17
2018-07-12T00:27:15.032Z,1005.14
2018-07-12T00:28:15.047Z,1005.19
2018-07-12T00:29:15.150Z,1005.21
2018-07-12T00:30:15.086Z,1005.21
2018-07-12T00:31:15.305Z,1005.19
2018-07-12T00:32:15.081Z,1005.17
2018-07-12T00:33:14.997Z,1005.23
2018-07-12T00:34:14.948Z,1005.22
2018-07-12T00:35:15.029Z,1005.19
2018-07-12T00:36:15.422Z,1005.24
2018-07-12T00:37:15.545Z,1005.26
2018-07-12T00:38:15.605Z,1005.25
2018-07-12T00:39:15.610Z,1005.19
2018-07-12T00:40:14.975Z,1005.21
2018-07-12T00:41:15.012Z,1005.27
2018-07-12T00:42:15.308Z,1005.25
2018-07-12T00:43:14.905Z,1005.25
2018-07-12T00:44:15.071Z,1005.29
2018-07-12T00:45:14.841Z,1005.20
2018-07-12T00:46:14.812Z,1005.28
2018-07-12T00:47:14.804Z,1005.26
2018-07-12T00:48:14.891Z,1005.22
2018-07-12T00:49:15.380Z,1005.27
2018-07-12T00:50:14.883Z,1005.22
2018-07-12T00:51:14.756Z,1005.21
2018-07-12T00:52:14.841Z,1005.22
2018-07-12T00:53:15.356Z,1005.23
2018-07-12T00:54:14.801Z,1005.21
2018-07-12T00:55:15.398Z,1005.26
2018-07-12T00:56:14.775Z,1005.25
2018-07-12T00:57:16.802Z,1005.20
2018-07-12T00:58:14.726Z,1005.24
2018-07-12T00:59:14.976Z,1005.22
2018-07-12T01:00:14.957Z,1005.20
2018-07-12T01:01:14.665Z,1005.22
2018-07-12T01:02:14.632Z,1005.18
2018-07-12T01:03:14.615Z,1005.17
2018-07-12T01:04:14.606Z,1005.13
2018-07-12T01:05:14.593Z,1005.17
2018-07-12T01:06:14.611Z,1005.18
2018-07-12T01:07:14.684Z,1005.15
2018-07-12T01:08:14.564Z,1005.14
2018-07-12T01:09:14.580Z,1005.15
2018-07-12T01:10:14.532Z,1005.15
2018-07-12T01:11:14.544Z,1005.11
2018-07-12T01:12:14.576Z,1005.12
2018-07-12T01:13:14.500Z,1005.11
2018-07-12T01:14:14.542Z,1005.12
2018-07-12T01:15:14.569Z,1005.07
2018-07-12T01:16:14.494Z,1005.14
2018-07-12T01:17:14.458Z,1005.13
2018-07-12T01:18:14.439Z,1005.12
2018-07-12T01:19:14.431Z,1005.16
2018-07-12T01:20:14.422Z,1005.13
2018-07-12T01:21:14.407Z,1005.15
2018-07-12T01:22:14.424Z,1005.10
2018-07-12T01:23:14.385Z,1005.14
2018-07-12T01:24:14.373Z,1005.18
2018-07-12T01:25:14.363Z,1005.17
2018-07-12T01:26:14.352Z,1005.17
2018-07-12T01:27:14.334Z,1005.19
2018-07-12T01:28:14.349Z,1005.20
2018-07-12T01:29:14.309Z,1005.16
2018-07-12T01:30:14.300Z,1005.14
2018-07-12T01:31:14.293Z,1005.14
2018-07-12T01:32:14.284Z,1005.15
2018-07-12T01:33:14.287Z,1005.14
2018-07-12T01:34:14.258Z,1005.06
2018-07-12T01:35:14.242Z,1005.07
2018-07-12T01:36:14.330Z,1005.02
2018-07-12T01:37:14.226Z,1005.08
2018-07-12T01:38:14.232Z,1005.01
2018-07-12T01:39:14.202Z,1005.00
2018-07-12T01:40:14.191Z,1004.95
2018-07-12T01:41:14.171Z,1004.96
2018-07-12T01:42:14.159Z,1004.91
2018-07-12T01:43:14.176Z,1004.99
2018-07-12T01:44:14.136Z,1004.94
2018-07-12T01:45:14.128Z,1004.91
2018-07-12T01:46:14.119Z,1004.91
2018-07-12T01:47:14.104Z,1004.97
2018-07-12T01:48:14.121Z,1004.96
2018-07-12T01:49:14.082Z,1005.01
2018-07-12T01:50:14.073Z,1005.04
2018-07-12T01:51:14.062Z,1005.05
2018-07-12T01:52:14.045Z,1005.05
2018-07-12T01:53:14.066Z,1004.99
2018-07-12T01:54:14.028Z,1004.98
2018-07-12T01:55:14.014Z,1005.01
2018-07-12T01:56:14.000Z,1004.96
2018-07-12T01:57:13.985Z,1004.95
2018-07-12T01:58:14.013Z,1004.94
2018-07-12T01:59:13.963Z,1004.97
2018-07-12T02:00:13.954Z,1005.00
2018-07-12T02:01:13.951Z,1004.99
2018-07-12T02:02:13.933Z,1004.95
2018-07-12T02:03:13.917Z,1004.96
2018-07-12T02:04:34.904Z,1005.00
2018-07-12T02:05:13.900Z,1004.97
2018-07-12T02:06:13.886Z,1004.98
2018-07-12T02:07:13.874Z,1004.93
2018-07-12T02:08:13.865Z,1004.94
2018-07-12T02:09:13.876Z,1004.91
2018-07-12T02:10:13.840Z,1004.98
2018-07-12T02:11:13.823Z,1005.03
2018-07-12T02:12:13.812Z,1005.01
2018-07-12T02:13:13.808Z,1005.05
2018-07-12T02:14:13.797Z,1005.00
2018-07-12T02:15:13.806Z,1005.03
2018-07-12T02:16:13.772Z,1005.00
2018-07-12T02:17:13.752Z,1005.03
2018-07-12T02:18:13.744Z,1005.00
2018-07-12T02:19:13.736Z,1005.00
2018-07-12T02:20:13.746Z,1005.08
2018-07-12T02:21:13.713Z,1005.04
2018-07-12T02:22:13.701Z,1005.02
2018-07-12T02:23:13.686Z,1005.03
2018-07-12T02:24:13.679Z,1005.03
2018-07-12T02:25:13.689Z,1004.97
2018-07-12T02:26:13.659Z,1005.04
2018-07-12T02:27:13.642Z,1005.07
2018-07-12T02:28:13.628Z,1005.05
2018-07-12T02:29:13.622Z,1005.10
2018-07-12T02:30:13.634Z,1005.08
2018-07-12T02:31:13.596Z,1005.12
2018-07-12T02:32:13.595Z,1005.06
2018-07-12T02:33:13.570Z,1005.07
2018-07-12T02:34:13.558Z,1005.05
2018-07-12T02:35:13.590Z,1005.05
2018-07-12T02:36:13.575Z,1005.07
2018-07-12T02:37:13.526Z,1005.10
2018-07-12T02:38:13.524Z,1005.13
2018-07-12T02:39:13.501Z,1005.05
2018-07-12T02:40:13.485Z,1005.14
2018-07-12T02:41:13.479Z,1005.10
2018-07-12T02:42:13.488Z,1005.11
2018-07-12T02:43:13.456Z,1005.13
2018-07-12T02:44:13.447Z,1005.12
2018-07-12T02:45:13.433Z,1005.07
2018-07-12T02:46:13.420Z,1005.06
2018-07-12T02:47:13.428Z,1005.06
2018-07-12T02:48:13.397Z,1005.10
2018-07-12T02:49:13.391Z,1005.11
2018-07-12T02:50:13.375Z,1005.10
2018-07-12T02:51:13.361Z,1005.04
2018-07-12T02:52:13.386Z,1005.07
2018-07-12T02:53:13.344Z,1005.09
2018-07-12T02:54:13.333Z,1005.11
2018-07-12T02:55:13.317Z,1005.15
2018-07-12T02:56:13.307Z,1005.14
2018-07-12T02:57:13.292Z,1005.12
2018-07-12T02:58:13.335Z,1005.10
2018-07-12T02:59:13.266Z,1005.13
2018-07-12T03:00:13.252Z,1005.06
2018-07-12T03:01:13.253Z,1005.08
2018-07-12T03:02:13.232Z,1005.09
2018-07-12T03:03:13.256Z,1005.05
2018-07-12T03:04:13.213Z,1004.97
2018-07-12T03:05:13.194Z,1005.04
2018-07-12T03:06:13.184Z,1004.98
2018-07-12T03:07:13.170Z,1005.02
2018-07-12T03:08:13.167Z,1005.01
2018-07-12T03:09:13.170Z,1005.00
2018-07-12T03:10:13.141Z,1004.97
2018-07-12T03:11:13.127Z,1005.00
2018-07-12T03:12:13.113Z,1004.96
2018-07-12T03:13:13.102Z,1004.95
2018-07-12T03:14:13.136Z,1004.92
2018-07-12T03:15:13.083Z,1004.91
2018-07-12T03:16:13.069Z,1004.97
2018-07-12T03:17:13.094Z,1004.98
2018-07-12T03:18:13.048Z,1004.96
2018-07-12T03:19:13.059Z,1004.94
2018-07-12T03:20:13.027Z,1005.04
2018-07-12T03:21:13.011Z,1005.04
2018-07-12T03:22:13.002Z,1005.01
2018-07-12T03:23:12.994Z,1005.04
2018-07-12T03:24:13.000Z,1005.02
2018-07-12T03:25:12.969Z,1004.98
2018-07-12T03:26:12.962Z,1004.97
2018-07-12T03:27:12.945Z,1004.99
2018-07-12T03:28:12.935Z,1004.95
2018-07-12T03:29:12.944Z,1004.96
2018-07-12T03:30:12.908Z,1005.02
2018-07-12T03:31:12.901Z,1005.01
2018-07-12T03:32:12.887Z,1005.01
2018-07-12T03:33:12.872Z,1005.02
2018-07-12T03:34:12.889Z,1005.01
2018-07-12T03:35:12.846Z,1005.00
2018-07-12T03:36:12.835Z,1005.02
2018-07-12T03:37:12.828Z,1005.02
2018-07-12T03:38:12.821Z,1005.06
2018-07-12T03:39:12.824Z,1005.09
2018-07-12T03:40:12.797Z,1005.11
2018-07-12T03:41:12.777Z,1005.08
2018-07-12T03:42:12.770Z,1005.07
2018-07-12T03:43:12.763Z,1005.02
2018-07-12T03:44:12.774Z,1005.01
2018-07-12T03:45:12.734Z,1005.03
2018-07-12T03:46:12.722Z,1005.00
2018-07-12T03:47:12.713Z,1005.04
2018-07-12T03:48:12.700Z,1005.07
2018-07-12T03:49:12.691Z,1005.02
2018-07-12T03:50:12.703Z,1005.08
2018-07-12T03:51:12.664Z,1005.07
2018-07-12T03:52:12.657Z,1005.08
2018-07-12T03:53:12.642Z,1005.10
2018-07-12T03:54:12.633Z,1005.06
2018-07-12T03:55:12.650Z,1005.06
2018-07-12T03:56:12.605Z,1005.06
2018-07-12T03:57:12.595Z,1005.07
2018-07-12T03:58:12.589Z,1005.11
2018-07-12T03:59:12.576Z,1005.08
2018-07-12T04:00:12.561Z,1005.09
2018-07-12T04:01:12.578Z,1005.08
2018-07-12T04:02:12.535Z,1005.07
2018-07-12T04:03:12.531Z,1005.06
2018-07-12T04:04:12.517Z,1005.12
2018-07-12T04:05:12.503Z,1005.12
2018-07-12T04:06:12.519Z,1005.10
2018-07-12T04:07:12.476Z,1005.05
2018-07-12T04:08:12.467Z,1005.08
2018-07-12T04:09:12.459Z,1005.08
2018-07-12T04:10:12.444Z,1005.07
2018-07-12T04:11:12.464Z,1005.09
2018-07-12T04:12:12.429Z,1005.09
2018-07-12T04:13:12.412Z,1005.04
2018-07-12T04:14:12.401Z,1005.08
2018-07-12T04:15:12.387Z,1005.08
2018-07-12T04:16:12.371Z,1005.03
2018-07-12T04:17:12.388Z,1005.06
2018-07-12T04:18:12.359Z,1005.05
2018-07-12T04:19:12.335Z,1005.07
2018-07-12T04:20:12.329Z,1005.09
2018-07-12T04:21:12.319Z,1005.10
2018-07-12T04:22:12.331Z,1005.15
2018-07-12T04:23:12.300Z,1005.17
2018-07-12T04:24:12.286Z,1005.13
2018-07-12T04:25:12.270Z,1005.12
2018-07-12T04:26:12.262Z,1005.13
2018-07-12T04:27:12.253Z,1005.14
2018-07-12T04:28:12.255Z,1005.11
2018-07-12T04:29:12.231Z,1005.16
2018-07-12T04:30:12.217Z,1005.14
2018-07-12T04:31:12.204Z,1005.21
2018-07-12T04:32:12.196Z,1005.18
2018-07-12T04:33:12.206Z,1005.25
2018-07-12T04:34:12.162Z,1005.23
2018-07-12T04:35:12.159Z,1005.28
2018-07-12T04:36:12.145Z,1005.22
2018-07-12T04:37:12.132Z,1005.25
2018-07-12T04:38:12.155Z,1005.27
2018-07-12T04:39:12.106Z,1005.26
2018-07-12T04:40:12.095Z,1005.29
2018-07-12T04:41:12.109Z,1005.28
2018-07-12T04:42:12.079Z,1005.30
2018-07-12T04:43:12.059Z,1005.34
2018-07-12T04:44:12.079Z,1005.33
2018-07-12T04:45:12.041Z,1005.33
2018-07-12T04:46:12.024Z,1005.38
2018-07-12T04:47:12.022Z,1005.39
2018-07-12T04:48:12.025Z,1005.35
2018-07-12T04:49:12.022Z,1005.43
2018-07-12T04:50:11.999Z,1005.41
2018-07-12T04:51:11.972Z,1005.41
2018-07-12T04:52:11.957Z,1005.44
2018-07-12T04:53:11.955Z,1005.44
2018-07-12T04:54:11.928Z,1005.45
2018-07-12T04:55:11.999Z,1005.37
2018-07-12T04:56:11.999Z,1005.42
2018-07-12T04:57:11.897Z,1005.42
2018-07-12T04:58:11.932Z,1005.45
2018-07-12T04:59:11.880Z,1005.47
2018-07-12T05:00:11.890Z,1005.50
2018-07-12T05:01:11.855Z,1005.49
2018-07-12T05:02:11.846Z,1005.47
2018-07-12T05:03:11.824Z,1005.51
2018-07-12T05:04:11.820Z,1005.52
2018-07-12T05:05:11.801Z,1005.52
2018-07-12T05:06:11.821Z,1005.52
2018-07-12T05:07:11.781Z,1005.53
2018-07-12T05:08:11.813Z,1005.48
2018-07-12T05:09:11.767Z,1005.54
2018-07-12T05:10:11.745Z,1005.55
2018-07-12T05:11:11.760Z,1005.54
2018-07-12T05:12:11.748Z,1005.51
2018-07-12T05:13:11.714Z,1005.48
2018-07-12T05:14:11.701Z,1005.47
2018-07-12T05:15:11.691Z,1005.43
2018-07-12T05:16:11.747Z,1005.50
2018-07-12T05:17:11.667Z,1005.52
2018-07-12T05:18:11.937Z,1005.48
2018-07-12T05:19:11.663Z,1005.42
2018-07-12T05:20:11.633Z,1005.54
2018-07-12T05:21:11.625Z,1005.48
2018-07-12T05:22:11.631Z,1005.51
2018-07-12T05:23:11.598Z,1005.50
2018-07-12T05:24:11.593Z,1005.55
2018-07-12T05:25:11.576Z,1005.51
2018-07-12T05:26:11.564Z,1005.50
2018-07-12T05:27:11.575Z,1005.54
2018-07-12T05:28:11.543Z,1005.56
2018-07-12T05:29:11.527Z,1005.55
2018-07-12T05:30:11.513Z,1005.61
2018-07-12T05:31:11.511Z,1005.56
2018-07-12T05:32:11.498Z,1005.56
2018-07-12T05:33:11.482Z,1005.62
2018-07-12T05:34:11.475Z,1005.58
2018-07-12T05:35:11.456Z,1005.61
2018-07-12T05:36:11.446Z,1005.60
2018-07-12T05:37:11.458Z,1005.65
2018-07-12T05:38:11.431Z,1005.61
2018-07-12T05:39:11.458Z,1005.61
2018-07-12T05:40:11.400Z,1005.58
2018-07-12T05:41:11.400Z,1005.61
2018-07-12T05:42:11.413Z,1005.61
2018-07-12T05:43:11.371Z,1005.63
2018-07-12T05:44:11.361Z,1005.63
2018-07-12T05:45:11.344Z,1005.61
2018-07-12T05:46:11.342Z,1005.62
2018-07-12T05:47:11.320Z,1005.62
2018-07-12T05:48:11.333Z,1005.58
2018-07-12T05:49:11.305Z,1005.53
2018-07-12T05:50:11.286Z,1005.58
2018-07-12T05:51:11.282Z,1005.63
2018-07-12T06:57:21.131Z,1006.17
2018-07-12T06:58:21.096Z,1006.17
2018-07-12T06:59:21.092Z,1006.19
2018-07-12T07:00:21.071Z,1006.25
2018-07-12T07:01:21.062Z,1006.26
2018-07-12T07:02:21.073Z,1006.31
2018-07-12T07:03:21.042Z,1006.31
2018-07-12T07:04:21.028Z,1006.33
2018-07-12T07:05:21.020Z,1006.37
2018-07-12T07:06:21.002Z,1006.32
2018-07-12T07:07:21.028Z,1006.35
2018-07-12T07:08:20.981Z,1006.38
2018-07-12T07:09:20.975Z,1006.37
2018-07-12T07:10:20.957Z,1006.39
2018-07-12T07:11:20.948Z,1006.35
2018-07-12T07:12:20.939Z,1006.36
2018-07-12T07:13:20.954Z,1006.36
2018-07-12T07:14:20.913Z,1006.38
2018-07-12T07:15:20.904Z,1006.40
2018-07-12T07:16:20.888Z,1006.39
2018-07-12T07:17:20.883Z,1006.42
2018-07-12T07:18:20.871Z,1006.42
2018-07-12T07:19:20.855Z,1006.42
2018-07-12T07:20:20.839Z,1006.45
2018-07-12T07:21:20.838Z,1006.47
2018-07-12T07:22:20.825Z,1006.39
2018-07-12T07:23:20.838Z,1006.45
2018-07-12T07:24:20.798Z,1006.48
2018-07-12T07:25:20.789Z,1006.52
2018-07-12T07:26:20.850Z,1006.46
2018-07-12T07:27:20.757Z,1006.50
2018-07-12T07:28:20.756Z,1006.49
2018-07-12T07:29:20.759Z,1006.45
2018-07-12T07:30:20.723Z,1006.51
2018-07-12T07:31:20.720Z,1006.55
2018-07-12T07:32:20.731Z,1006.55
2018-07-12T07:33:20.698Z,1006.57
2018-07-12T07:34:20.710Z,1006.53
2018-07-12T07:35:20.666Z,1006.56
2018-07-12T07:36:20.657Z,1006.56
2018-07-12T07:37:20.649Z,1006.56
2018-07-12T07:38:20.637Z,1006.58
2018-07-12T07:39:20.645Z,1006.56
2018-07-12T07:40:20.610Z,1006.61
2018-07-12T07:41:20.605Z,1006.62
2018-07-12T07:42:20.585Z,1006.61
2018-07-12T07:43:20.579Z,1006.59
2018-07-12T07:44:20.592Z,1006.63
2018-07-12T07:45:20.562Z,1006.60
2018-07-12T07:46:20.541Z,1006.58
2018-07-12T07:47:20.532Z,1006.63
2018-07-12T07:48:20.518Z,1006.60
2018-07-12T07:49:20.547Z,1006.61
2018-07-12T07:50:20.503Z,1006.66
2018-07-12T07:51:20.481Z,1006.67
2018-07-12T07:52:20.477Z,1006.60
2018-07-12T07:53:20.456Z,1006.62
2018-07-12T07:54:20.444Z,1006.64
2018-07-12T07:55:20.470Z,1006.66
2018-07-12T07:56:20.424Z,1006.70
2018-07-12T07:57:20.423Z,1006.73
2018-07-12T07:58:20.399Z,1006.69
2018-07-12T07:59:20.395Z,1006.67
2018-07-12T08:00:20.401Z,1006.73
2018-07-12T08:01:20.372Z,1006.68
2018-07-12T08:02:20.366Z,1006.66
2018-07-12T08:03:20.346Z,1006.72
2018-07-12T08:04:20.339Z,1006.71
2018-07-12T08:05:20.353Z,1006.66
2018-07-12T08:06:20.314Z,1006.71
2018-07-12T08:07:20.297Z,1006.72
2018-07-12T08:08:20.283Z,1006.74
2018-07-12T08:09:20.281Z,1006.78
2018-07-12T08:10:20.266Z,1006.78
2018-07-12T08:11:20.253Z,1006.80
2018-07-12T08:12:20.249Z,1006.82
2018-07-12T08:13:20.223Z,1006.85
2018-07-12T08:14:20.226Z,1006.92
2018-07-12T08:15:20.228Z,1006.85
2018-07-12T08:16:20.323Z,1006.90
2018-07-12T08:17:20.180Z,1006.85
2018-07-12T08:18:20.170Z,1007.03
2018-07-12T08:19:20.166Z,1006.84
2018-07-12T08:20:20.184Z,1006.86
2018-07-12T08:21:20.137Z,1006.85
2018-07-12T08:22:20.132Z,1006.82
2018-07-12T08:23:20.111Z,1006.90
2018-07-12T08:24:20.111Z,1006.91
2018-07-12T08:25:20.089Z,1006.87
2018-07-12T08:26:20.105Z,1007.16
2018-07-12T08:27:20.069Z,1007.26
2018-07-12T08:28:20.068Z,1007.22
2018-07-12T08:29:20.045Z,1007.17
2018-07-12T08:30:20.031Z,1007.29
2018-07-12T08:31:20.171Z,1007.03
2018-07-12T08:32:20.008Z,1006.93
2018-07-12T08:33:20.012Z,1006.85
2018-07-12T08:34:19.990Z,1006.82
2018-07-12T08:35:19.980Z,1006.83
2018-07-12T08:36:19.999Z,1006.86
2018-07-12T08:37:19.962Z,1006.84
2018-07-12T08:38:19.947Z,1006.80
2018-07-12T08:39:19.958Z,1006.88
2018-07-12T08:40:19.923Z,1007.16
2018-07-12T08:41:19.946Z,1007.22
2018-07-12T08:42:19.919Z,1007.27
2018-07-12T08:43:19.983Z,1007.25
2018-07-12T08:44:19.882Z,1007.23
2018-07-12T08:45:19.874Z,1007.27
2018-07-12T08:46:19.893Z,1007.29
2018-07-12T08:47:19.870Z,1007.31
2018-07-12T08:48:19.865Z,1007.30
2018-07-12T08:49:19.819Z,1007.11
2018-07-12T08:50:19.870Z,1007.01
2018-07-12T08:51:19.838Z,1007.02
2018-07-12T08:52:19.792Z,1007.03
2018-07-12T08:53:19.784Z,1006.92
2018-07-12T08:54:19.767Z,1006.95
2018-07-12T08:55:19.759Z,1006.87
2018-07-12T08:56:19.744Z,1006.91
2018-07-12T08:57:19.769Z,1006.85
2018-07-12T08:58:19.727Z,1006.89
2018-07-12T08:59:19.711Z,1006.98
2018-07-12T09:00:19.705Z,1007.04
2018-07-12T09:01:19.689Z,1007.07
2018-07-12T09:02:19.676Z,1007.25
2018-07-12T09:03:19.698Z,1007.24
2018-07-12T09:04:19.656Z,1007.26
2018-07-12T09:05:19.652Z,1007.24
2018-07-12T09:06:19.640Z,1007.00
2018-07-12T09:07:19.620Z,1007.01
2018-07-12T09:08:19.682Z,1006.94
2018-07-12T09:09:19.604Z,1007.25
2018-07-12T09:10:19.597Z,1006.96
2018-07-12T09:11:19.580Z,1006.96
2018-07-12T09:12:19.573Z,1007.30
2018-07-12T09:13:19.586Z,1007.39
2018-07-12T09:14:19.545Z,1007.37
2018-07-12T09:15:19.539Z,1007.46
2018-07-12T09:16:19.524Z,1007.42
2018-07-12T09:17:19.518Z,1007.09
2018-07-12T09:18:19.508Z,1007.00
2018-07-12T09:19:19.516Z,1006.99
2018-07-12T09:20:19.489Z,1006.97
2018-07-12T09:21:19.469Z,1007.01
2018-07-12T09:22:19.458Z,1007.16
2018-07-12T09:23:19.452Z,1007.29
2018-07-12T09:24:19.472Z,1006.93
2018-07-12T09:25:19.480Z,1007.08
2018-07-12T09:26:19.419Z,1007.34
2018-07-12T09:27:19.409Z,1007.37
2018-07-12T09:28:19.397Z,1007.43
2018-07-12T09:29:19.410Z,1007.45
2018-07-12T09:30:19.396Z,1007.47
2018-07-12T09:31:19.373Z,1007.52
2018-07-12T09:32:19.351Z,1007.40
2018-07-12T09:33:19.348Z,1007.44
2018-07-12T09:34:19.330Z,1007.43
2018-07-12T09:35:19.361Z,1007.52
2018-07-12T09:36:19.309Z,1007.54
2018-07-12T09:37:19.306Z,1007.51
2018-07-12T09:38:19.292Z,1007.44
2018-07-12T09:39:19.284Z,1007.11
2018-07-12T09:40:19.271Z,1007.01
2018-07-12T09:41:19.287Z,1007.03
2018-07-12T09:42:19.248Z,1007.01
2018-07-12T09:43:19.256Z,1006.99
2018-07-12T09:44:19.232Z,1007.46
2018-07-12T09:45:19.218Z,1007.42
2018-07-12T09:46:19.233Z,1007.42
2018-07-12T09:47:19.224Z,1007.36
2018-07-12T09:48:19.195Z,1007.45
2018-07-12T09:49:19.259Z,1007.52
2018-07-12T09:50:19.165Z,1007.47
2018-07-12T09:51:19.181Z,1007.53
2018-07-12T09:52:19.154Z,1007.45
2018-07-12T09:53:19.134Z,1007.54
2018-07-12T09:54:19.125Z,1007.52
2018-07-12T09:55:19.124Z,1007.60
2018-07-12T09:56:19.233Z,1007.46
2018-07-12T09:57:19.098Z,1007.51
2018-07-12T09:58:19.096Z,1007.60
2018-07-12T09:59:19.084Z,1007.57
2018-07-12T10:00:19.068Z,1007.60
2018-07-12T10:01:19.093Z,1007.68
2018-07-12T10:02:19.058Z,1007.69
2018-07-12T10:03:19.037Z,1007.34
2018-07-12T10:04:19.023Z,1007.14
2018-07-12T10:05:19.023Z,1007.10
2018-07-12T10:06:19.030Z,1007.05
2018-07-12T10:07:19.023Z,1007.06
2018-07-12T10:08:18.988Z,1007.00
2018-07-12T10:09:18.976Z,1007.04
2018-07-12T10:10:18.971Z,1007.08
2018-07-12T10:11:18.982Z,1007.13
2018-07-12T10:12:18.949Z,1007.43
2018-07-12T10:13:18.939Z,1007.15
2018-07-12T10:14:18.926Z,1007.11
2018-07-12T10:15:18.909Z,1007.19
2018-07-12T10:16:18.927Z,1007.49
2018-07-12T10:17:18.895Z,1007.52
2018-07-12T10:18:18.885Z,1007.52
2018-07-12T10:19:18.868Z,1007.55
2018-07-12T10:20:18.858Z,1007.48
2018-07-12T10:21:18.851Z,1007.56
2018-07-12T10:22:18.860Z,1007.05
2018-07-12T10:23:18.824Z,1006.97
2018-07-12T10:24:18.816Z,1007.00
2018-07-12T10:25:18.804Z,1006.99
2018-07-12T10:26:18.793Z,1006.98
2018-07-12T10:27:18.816Z,1007.02
2018-07-12T10:28:18.778Z,1007.58
2018-07-12T10:29:18.769Z,1007.01
2018-07-12T10:30:18.760Z,1007.06
2018-07-12T10:31:18.740Z,1007.29
2018-07-12T10:32:18.762Z,1007.61
2018-07-12T10:33:18.725Z,1007.59
2018-07-12T10:34:18.713Z,1007.25
2018-07-12T10:35:18.699Z,1007.30
2018-07-12T10:36:18.691Z,1007.54
2018-07-12T10:37:18.678Z,1007.12
2018-07-12T10:38:18.690Z,1007.06
2018-07-12T10:39:18.658Z,1007.55
2018-07-12T10:40:18.652Z,1007.27
2018-07-12T10:41:18.643Z,1007.20
2018-07-12T10:42:18.626Z,1007.26
2018-07-12T10:43:18.642Z,1006.95
2018-07-12T10:44:18.605Z,1006.98
2018-07-12T10:45:18.590Z,1006.99
2018-07-12T10:46:18.580Z,1006.91
2018-07-12T10:47:18.578Z,1006.95
2018-07-12T10:48:18.581Z,1006.92
2018-07-12T10:49:18.558Z,1006.91
2018-07-12T10:50:18.541Z,1006.91
2018-07-12T10:51:18.533Z,1006.87
2018-07-12T10:52:18.520Z,1006.91
2018-07-12T10:53:18.542Z,1006.83
2018-07-12T10:54:18.499Z,1006.92
2018-07-12T10:55:18.483Z,1006.94
2018-07-12T10:56:18.480Z,1006.94
2018-07-12T10:57:18.463Z,1006.93
2018-07-12T10:58:18.449Z,1006.95
2018-07-12T10:59:18.473Z,1007.16
2018-07-12T11:00:18.433Z,1007.36
2018-07-12T11:01:18.429Z,1007.39
2018-07-12T11:02:18.412Z,1007.42
2018-07-12T11:03:18.406Z,1007.40
2018-07-12T11:04:18.419Z,1007.38
2018-07-12T11:05:18.377Z,1007.43
2018-07-12T11:06:18.362Z,1007.41
2018-07-12T11:07:18.362Z,1007.48
2018-07-12T11:08:18.348Z,1007.47
2018-07-12T11:09:18.369Z,1007.44
2018-07-12T11:10:18.331Z,1007.42
2018-07-12T11:11:18.318Z,1006.84
2018-07-12T11:12:18.308Z,1006.88
2018-07-12T11:13:18.303Z,1006.88
2018-07-12T11:14:18.284Z,1006.90
2018-07-12T11:15:18.295Z,1006.85
2018-07-12T11:16:18.262Z,1006.91
2018-07-12T11:17:18.261Z,1006.81
2018-07-12T11:18:18.238Z,1006.89
2018-07-12T11:19:18.236Z,1006.86
2018-07-12T11:20:18.242Z,1007.27
2018-07-12T11:21:18.365Z,1007.33
2018-07-12T11:22:18.200Z,1007.00
2018-07-12T11:23:18.191Z,1006.93
2018-07-12T11:24:18.183Z,1006.88
2018-07-12T11:25:18.197Z,1007.26
2018-07-12T11:26:18.164Z,1007.26
2018-07-12T11:27:18.147Z,1007.34
2018-07-12T11:28:18.138Z,1007.30
2018-07-12T11:29:18.127Z,1007.28
2018-07-12T11:30:18.166Z,1007.24
2018-07-12T11:31:18.111Z,1007.26
2018-07-12T11:32:18.100Z,1007.25
2018-07-12T11:33:18.090Z,1007.19
2018-07-12T11:34:18.078Z,1007.26
2018-07-12T11:35:18.070Z,1007.23
2018-07-12T11:36:18.105Z,1007.28
2018-07-12T11:37:18.052Z,1007.33
2018-07-12T11:38:18.035Z,1007.31
2018-07-12T11:39:18.045Z,1007.31
2018-07-12T11:40:18.017Z,1007.31
2018-07-12T11:41:18.043Z,1007.20
2018-07-12T11:42:18.001Z,1006.88
2018-07-12T11:43:17.992Z,1007.08
2018-07-12T11:44:17.981Z,1006.82
2018-07-12T11:45:17.979Z,1006.76
2018-07-12T11:46:17.987Z,1006.75
2018-07-12T11:47:17.955Z,1006.76
2018-07-12T11:48:17.941Z,1006.78
2018-07-12T11:49:17.928Z,1006.78
2018-07-12T11:50:17.918Z,1006.70
2018-07-12T11:51:17.941Z,1006.74
2018-07-12T11:52:17.905Z,1006.68
2018-07-12T11:53:17.891Z,1006.68
2018-07-12T11:54:17.880Z,1007.16
2018-07-12T11:55:17.873Z,1007.12
2018-07-12T11:56:17.898Z,1006.70
2018-07-12T11:57:17.845Z,1007.15
2018-07-12T11:58:17.838Z,1007.16
2018-07-12T11:59:17.825Z,1007.14
2018-07-12T12:00:17.823Z,1007.14
2018-07-12T12:01:17.854Z,1007.13
2018-07-12T12:02:17.821Z,1007.11
2018-07-12T12:03:17.793Z,1007.15
2018-07-12T12:04:17.783Z,1007.09
2018-07-12T12:05:17.783Z,1007.13
2018-07-12T12:06:17.763Z,1006.95
2018-07-12T12:07:17.774Z,1007.08
2018-07-12T12:08:17.747Z,1006.79
2018-07-12T12:09:17.728Z,1006.65
2018-07-12T12:10:17.718Z,1006.67
2018-07-12T12:11:17.717Z,1006.65
2018-07-12T12:12:17.736Z,1006.69
2018-07-12T12:13:17.690Z,1006.67
2018-07-12T12:14:17.676Z,1006.92
2018-07-12T12:15:17.669Z,1006.65
2018-07-12T12:16:17.656Z,1007.09
2018-07-12T12:17:17.656Z,1007.04
2018-07-12T12:18:17.669Z,1006.95
2018-07-12T12:19:17.630Z,1007.05
2018-07-12T12:20:17.627Z,1006.76
2018-07-12T12:21:17.609Z,1006.57
2018-07-12T12:22:17.600Z,1006.52
2018-07-12T12:23:17.606Z,1006.51
2018-07-12T12:24:17.573Z,1006.54
2018-07-12T12:25:17.580Z,1006.89
2018-07-12T12:26:17.564Z,1006.91
2018-07-12T12:27:17.544Z,1006.90
2018-07-12T12:28:17.535Z,1006.94
2018-07-12T12:29:17.562Z,1006.60
2018-07-12T12:30:17.522Z,1006.51
2018-07-12T12:31:17.509Z,1006.86
2018-07-12T12:32:17.493Z,1006.89
2018-07-12T12:33:17.488Z,1006.88
2018-07-12T12:34:17.471Z,1006.87
2018-07-12T12:35:17.494Z,1006.87
2018-07-12T12:36:17.458Z,1006.88
2018-07-12T12:37:17.450Z,1006.44
2018-07-12T12:38:17.438Z,1006.48
2018-07-12T12:39:17.428Z,1006.70
2018-07-12T12:40:17.449Z,1006.84
2018-07-12T12:41:17.402Z,1006.88
2018-07-12T12:42:17.400Z,1006.89
2018-07-12T12:43:17.387Z,1006.84
2018-07-12T12:44:17.375Z,1006.88
2018-07-12T12:45:17.409Z,1006.84
2018-07-12T12:46:17.355Z,1006.81
2018-07-12T12:47:17.356Z,1006.35
2018-07-12T12:48:17.341Z,1006.49
2018-07-12T12:49:17.334Z,1006.38
2018-07-12T12:50:17.324Z,1006.73
2018-07-12T12:51:17.335Z,1006.35
2018-07-12T12:52:17.300Z,1006.77
2018-07-12T12:53:17.292Z,1006.74
2018-07-12T12:54:17.276Z,1006.69
2018-07-12T12:55:17.276Z,1006.74
2018-07-12T12:56:17.282Z,1006.71
2018-07-12T12:57:17.256Z,1006.74
2018-07-12T12:58:17.249Z,1006.67
2018-07-12T12:59:17.229Z,1006.72
2018-07-12T13:00:17.231Z,1006.60
2018-07-12T13:01:17.252Z,1006.62
2018-07-12T13:02:17.218Z,1006.59
2018-07-12T13:03:17.191Z,1006.25
2018-07-12T13:04:17.185Z,1006.23
2018-07-12T13:05:17.172Z,1006.27
2018-07-12T13:06:17.166Z,1006.28
2018-07-12T13:07:17.179Z,1006.69
2018-07-12T13:08:17.150Z,1006.60
2018-07-12T13:09:17.135Z,1006.59
2018-07-12T13:10:17.127Z,1006.59